createdAt,value
2023-03-29T00:01:50.258Z,0.60
2023-03-29T00:06:50.682Z,0.90
2023-03-29T00:11:50.915Z,0.20
2023-03-29T00:16:51.629Z,0.50
2023-03-29T00:21:52.348Z,0.40
2023-03-29T00:26:51.831Z,0.70
2023-03-29T00:31:54.132Z,0.50
2023-03-29T00:36:58.130Z,0.20
2023-03-29T00:41:58.101Z,0.30
2023-03-29T00:46:57.671Z,0.70
2023-03-29T00:51:57.336Z,0.40
2023-03-29T01:02:02.472Z,0.50
2023-03-29T01:07:08.311Z,0.50
2023-03-29T01:12:17.226Z,0.20
2023-03-29T01:17:21.897Z,0.30
2023-03-29T01:22:33.916Z,1.10
2023-03-29T01:27:55.933Z,0.30
2023-03-29T01:33:01.781Z,0.60
2023-03-29T01:38:08.896Z,0.50
2023-03-29T01:43:23.656Z,0.30
2023-03-29T01:48:32.454Z,0.70
2023-03-29T01:53:39.562Z,0.20
2023-03-29T01:58:45.069Z,0.40
2023-03-29T02:03:51.059Z,0.60
2023-03-29T02:08:52.691Z,0.20
2023-03-29T02:13:51.910Z,0.80
2023-03-29T02:18:54.442Z,0.60
2023-03-29T02:23:55.941Z,0.50
2023-03-29T02:28:57.574Z,0.40
2023-03-29T02:34:02.421Z,0.60
2023-03-29T02:39:06.137Z,0.60
2023-03-29T02:44:09.311Z,0.80
2023-03-29T02:49:10.268Z,1.30
2023-03-29T02:54:17.983Z,1.60
2023-03-29T02:59:19.664Z,0.40
2023-03-29T03:04:20.752Z,1.50
2023-03-29T03:09:21.417Z,1.30
2023-03-29T03:14:22.963Z,1.10
2023-03-29T03:19:22.867Z,0.80
2023-03-29T03:24:22.417Z,0.30
2023-03-29T03:29:21.425Z,0.30
2023-03-29T03:34:46.389Z,1.20
2023-03-29T03:39:46.392Z,0.80
2023-03-29T03:44:46.493Z,0.30
2023-03-29T03:50:12.143Z,0.80
2023-03-29T03:55:13.615Z,0.40
2023-03-29T04:00:23.408Z,0.40
2023-03-29T04:05:40.051Z,0.10
2023-03-29T04:10:40.168Z,0.90
2023-03-29T04:15:49.991Z,0.80
2023-03-29T04:20:49.862Z,0.50
2023-03-29T04:25:50.667Z,0.30
2023-03-29T04:31:15.933Z,1.30
2023-03-29T04:36:25.498Z,0.80
2023-03-29T04:41:25.106Z,1.50
2023-03-29T04:46:33.374Z,0.80
2023-03-29T04:51:54.569Z,0.70
2023-03-29T04:56:57.179Z,1.10
2023-03-29T05:02:11.018Z,0.40
2023-03-29T05:07:12.023Z,1.50
2023-03-29T05:12:12.037Z,1.60
2023-03-29T05:17:26.851Z,1.50
2023-03-29T05:22:28.397Z,1.30
2023-03-29T05:27:28.323Z,1.50
2023-03-29T05:32:32.973Z,2.10
2023-03-29T05:37:33.589Z,1.90
2023-03-29T05:42:33.483Z,5.70
2023-03-29T05:47:38.969Z,1.30
2023-03-29T05:52:41.262Z,0.40
2023-03-29T05:57:41.669Z,1.90
2023-03-29T06:02:42.325Z,2.10
2023-03-29T06:07:42.424Z,2.30
2023-03-29T06:13:07.980Z,0.90
2023-03-29T06:18:08.156Z,1.40
2023-03-29T06:23:08.095Z,2.20
2023-03-29T06:28:07.977Z,0.70
2023-03-29T06:33:08.183Z,1.00
2023-03-29T06:38:22.770Z,2.00
2023-03-29T06:43:30.308Z,1.10
2023-03-29T06:48:39.970Z,1.10
2023-03-29T06:53:40.572Z,1.30
2023-03-29T06:58:40.876Z,1.10
2023-03-29T07:04:08.243Z,1.30
2023-03-29T07:09:20.721Z,0.60
2023-03-29T07:14:40.526Z,1.10
2023-03-29T07:19:40.455Z,1.30
2023-03-29T07:24:47.756Z,1.30
2023-03-29T07:29:46.804Z,0.90
2023-03-29T07:34:48.088Z,1.10
2023-03-29T07:39:56.886Z,1.20
2023-03-29T07:45:10.342Z,0.80
2023-03-29T07:50:20.039Z,0.90
2023-03-29T07:55:20.153Z,1.20
2023-03-29T08:00:30.624Z,1.10
2023-03-29T08:05:45.260Z,1.60
2023-03-29T08:10:47.328Z,1.30
2023-03-29T08:16:15.871Z,0.90
2023-03-29T08:21:21.132Z,0.80
2023-03-29T08:26:20.955Z,0.60
2023-03-29T08:31:21.117Z,1.10
2023-03-29T08:36:20.347Z,0.50
2023-03-29T08:41:43.962Z,0.50
2023-03-29T08:46:53.466Z,0.60
2023-03-29T08:52:05.492Z,0.80
2023-03-29T08:57:18.225Z,0.90
2023-03-29T09:02:31.325Z,0.40
2023-03-29T09:07:33.137Z,0.50
2023-03-29T09:12:55.369Z,0.50
2023-03-29T09:18:09.474Z,0.30
2023-03-29T09:23:28.572Z,0.10
2023-03-29T09:29:02.889Z,0.20
2023-03-29T09:34:10.631Z,0.10
2023-03-29T09:39:31.144Z,0.10
2023-03-29T09:44:44.222Z,0.10
2023-03-29T09:49:52.249Z,0.20
2023-03-29T09:54:53.547Z,0.20
2023-03-29T10:00:11.395Z,0.20
2023-03-29T10:05:22.064Z,0.20
2023-03-29T10:10:31.978Z,0.20
2023-03-29T10:15:33.855Z,0.20
2023-03-29T10:20:35.866Z,0.10
2023-03-29T10:25:43.004Z,0.10
2023-03-29T10:30:43.839Z,0.10
2023-03-29T10:35:44.999Z,0.20
2023-03-29T10:40:49.617Z,0.10
2023-03-29T10:45:52.015Z,0.60
2023-03-29T10:50:58.858Z,0.20
2023-03-29T10:56:20.064Z,0.30
2023-03-29T11:01:31.817Z,0.20
2023-03-29T11:06:40.149Z,0.20
2023-03-29T11:12:16.122Z,0.10
2023-03-29T11:17:31.848Z,0.10
2023-03-29T11:22:42.522Z,0.10
2023-03-29T11:27:51.578Z,0.10
2023-03-29T11:33:04.538Z,0.20
2023-03-29T11:38:15.221Z,0.30
2023-03-29T11:43:22.381Z,0.40
2023-03-29T11:48:31.405Z,0.70
2023-03-29T11:53:40.962Z,0.30
2023-03-29T11:58:48.578Z,0.20
2023-03-29T12:03:55.430Z,0.40
2023-03-29T12:09:01.282Z,0.40
2023-03-29T12:14:06.642Z,0.20
2023-03-29T12:19:18.302Z,0.50
2023-03-29T12:24:20.883Z,0.40
2023-03-29T12:29:41.225Z,0.40
2023-03-29T12:34:58.041Z,0.60
2023-03-29T12:40:02.304Z,0.50
2023-03-29T12:45:35.081Z,0.50
2023-03-29T12:50:50.509Z,0.30
2023-03-29T12:56:12.645Z,0.20
2023-03-29T13:01:27.262Z,0.40
2023-03-29T13:06:52.232Z,0.30
2023-03-29T13:12:00.988Z,0.50
2023-03-29T13:22:24.960Z,1.40
2023-03-29T13:27:37.422Z,1.70
2023-03-29T13:32:55.579Z,1.50
2023-03-29T13:38:11.244Z,0.90
2023-03-29T13:43:25.155Z,1.30
2023-03-29T13:48:33.757Z,1.40
2023-03-29T13:53:37.648Z,1.90
2023-03-29T13:58:46.708Z,1.40
2023-03-29T14:03:51.641Z,1.20
2023-03-29T14:08:52.881Z,1.00
2023-03-29T14:13:55.024Z,1.10
2023-03-29T14:18:59.592Z,0.50
2023-03-29T14:24:02.720Z,1.00
2023-03-29T14:29:04.460Z,0.70
2023-03-29T14:34:07.909Z,1.20
2023-03-29T14:39:14.002Z,1.20
2023-03-29T14:44:16.548Z,0.50
2023-03-29T14:49:20.120Z,0.60
2023-03-29T14:54:27.218Z,0.90
2023-03-29T14:59:40.358Z,1.00
2023-03-29T15:04:41.686Z,0.70
2023-03-29T15:09:41.007Z,0.70
2023-03-29T15:14:41.932Z,0.70
2023-03-29T15:19:41.363Z,0.80
2023-03-29T15:24:50.729Z,1.20
2023-03-29T15:29:50.934Z,0.70
2023-03-29T15:34:59.184Z,0.60
2023-03-29T15:39:59.180Z,1.30
2023-03-29T15:44:59.704Z,1.00
2023-03-29T15:49:58.496Z,1.00
2023-03-29T15:54:58.074Z,0.40
2023-03-29T15:59:57.232Z,0.80
2023-03-29T16:04:56.643Z,0.70
2023-03-29T16:09:55.823Z,0.70
2023-03-29T16:14:55.876Z,0.80
2023-03-29T16:19:55.045Z,0.90
2023-03-29T16:24:54.226Z,0.60
2023-03-29T16:29:53.885Z,0.80
2023-03-29T16:34:52.597Z,1.10
2023-03-29T16:39:51.278Z,1.10
2023-03-29T16:44:51.554Z,1.10
2023-03-29T16:49:50.481Z,1.00
2023-03-29T16:54:49.522Z,1.00
2023-03-29T16:59:49.221Z,1.10
2023-03-29T17:04:49.486Z,0.90
2023-03-29T17:09:51.579Z,0.90
2023-03-29T17:14:53.352Z,1.00
2023-03-29T17:19:52.456Z,0.70
2023-03-29T17:24:51.806Z,1.10
2023-03-29T17:29:51.115Z,1.00
2023-03-29T17:34:49.967Z,1.50
2023-03-29T17:39:50.135Z,1.20
2023-03-29T17:44:49.420Z,1.20
2023-03-29T17:49:48.799Z,1.80
2023-03-29T17:54:48.062Z,1.50
2023-03-29T17:59:47.528Z,1.50
2023-03-29T18:04:47.304Z,2.10
2023-03-29T18:09:46.429Z,1.10
2023-03-29T18:14:45.754Z,0.80
2023-03-29T18:19:45.459Z,1.40
2023-03-29T18:24:44.506Z,1.80
2023-03-29T18:29:44.719Z,2.10
2023-03-29T18:34:47.232Z,2.00
2023-03-29T18:39:49.274Z,2.40
2023-03-29T18:44:48.635Z,2.10
2023-03-29T18:49:48.145Z,2.30
2023-03-29T18:54:47.123Z,2.70
2023-03-29T18:59:46.682Z,2.30
2023-03-29T19:04:46.607Z,3.20
2023-03-29T19:09:48.625Z,2.90
2023-03-29T19:14:48.293Z,3.00
2023-03-29T19:19:59.595Z,3.10
2023-03-29T19:24:59.076Z,3.10
2023-03-29T19:30:01.051Z,3.30
2023-03-29T19:35:00.492Z,3.00
2023-03-29T19:39:59.853Z,3.50
2023-03-29T19:44:58.911Z,3.30
2023-03-29T19:50:00.275Z,3.30
2023-03-29T19:55:01.073Z,2.80
2023-03-29T20:00:01.627Z,3.00
2023-03-29T20:05:01.739Z,3.50
2023-03-29T20:10:01.605Z,3.30
2023-03-29T20:15:00.540Z,3.00
2023-03-29T20:20:00.183Z,3.70
2023-03-29T20:24:59.451Z,3.90
2023-03-29T20:29:59.294Z,4.10
2023-03-29T20:34:58.916Z,3.80
2023-03-29T20:39:59.477Z,3.70
2023-03-29T20:45:00.365Z,5.00
2023-03-29T20:50:04.407Z,5.80
2023-03-29T20:55:04.777Z,6.00
2023-03-29T21:00:12.110Z,6.40
2023-03-29T21:05:14.222Z,6.20
2023-03-29T21:10:15.634Z,5.20
2023-03-29T21:15:18.869Z,5.50
2023-03-29T21:20:20.031Z,5.50
2023-03-29T21:25:19.744Z,7.00
2023-03-29T21:30:19.459Z,5.90
2023-03-29T21:35:19.611Z,7.00
2023-03-29T21:40:20.883Z,6.30
2023-03-29T21:45:21.285Z,7.00
2023-03-29T21:50:20.687Z,7.40
2023-03-29T21:55:24.200Z,6.60
2023-03-29T22:00:35.586Z,7.30
2023-03-29T22:05:38.959Z,7.20
2023-03-29T22:10:41.314Z,7.50
2023-03-29T22:15:40.636Z,6.20
2023-03-29T22:20:40.247Z,6.00
2023-03-29T22:25:41.474Z,5.60
2023-03-29T22:30:41.417Z,7.30
2023-03-29T22:35:41.045Z,7.80
2023-03-29T22:40:44.250Z,8.00
2023-03-29T22:45:44.179Z,8.00
2023-03-29T22:50:44.109Z,8.40
2023-03-29T22:55:45.027Z,8.00
2023-03-29T23:00:44.214Z,8.10
2023-03-29T23:05:43.554Z,9.30
2023-03-29T23:10:42.891Z,8.20
2023-03-29T23:15:49.624Z,9.00
2023-03-29T23:20:49.878Z,8.50
2023-03-29T23:25:51.765Z,7.20
2023-03-29T23:30:58.130Z,7.30
2023-03-29T23:35:59.124Z,6.20
2023-03-29T23:41:01.010Z,5.90
2023-03-29T23:46:06.982Z,6.20
2023-03-29T23:51:08.477Z,5.80
2023-03-29T23:56:10.837Z,6.20
